sensor_id;sensor_type;location;lat;lon;timestamp;temperature;humidity
47174;DHT22;36730;49.036;9.094;2022-09-13T00:01:37;27.60;55.50
47174;DHT22;36730;49.036;9.094;2022-09-13T00:04:03;27.50;55.60
47174;DHT22;36730;49.036;9.094;2022-09-13T00:06:28;27.50;55.60
47174;DHT22;36730;49.036;9.094;2022-09-13T00:08:54;27.50;55.50
47174;DHT22;36730;49.036;9.094;2022-09-13T00:11:23;27.60;55.70
47174;DHT22;36730;49.036;9.094;2022-09-13T00:13:50;27.50;55.80
47174;DHT22;36730;49.036;9.094;2022-09-13T00:16:16;27.50;55.50
47174;DHT22;36730;49.036;9.094;2022-09-13T00:18:42;27.50;55.80
47174;DHT22;36730;49.036;9.094;2022-09-13T00:21:11;27.50;55.80
47174;DHT22;36730;49.036;9.094;2022-09-13T00:23:37;27.50;55.80
47174;DHT22;36730;49.036;9.094;2022-09-13T00:26:07;27.40;55.90
47174;DHT22;36730;49.036;9.094;2022-09-13T00:28:32;27.50;56.10
47174;DHT22;36730;49.036;9.094;2022-09-13T00:30:59;27.40;55.70
47174;DHT22;36730;49.036;9.094;2022-09-13T00:33:24;27.40;56.10
47174;DHT22;36730;49.036;9.094;2022-09-13T00:35:50;27.40;55.90
47174;DHT22;36730;49.036;9.094;2022-09-13T00:38:15;27.40;55.80
47174;DHT22;36730;49.036;9.094;2022-09-13T00:40:41;27.40;56.00
47174;DHT22;36730;49.036;9.094;2022-09-13T00:43:11;27.40;56.00
47174;DHT22;36730;49.036;9.094;2022-09-13T00:45:40;27.30;55.90
47174;DHT22;36730;49.036;9.094;2022-09-13T00:48:06;27.30;56.00
47174;DHT22;36730;49.036;9.094;2022-09-13T00:50:46;27.30;55.90
47174;DHT22;36730;49.036;9.094;2022-09-13T00:53:14;27.30;56.00
47174;DHT22;36730;49.036;9.094;2022-09-13T00:55:51;27.40;56.20
47174;DHT22;36730;49.036;9.094;2022-09-13T00:58:20;27.30;56.10
47174;DHT22;36730;49.036;9.094;2022-09-13T01:00:46;27.30;56.10
47174;DHT22;36730;49.036;9.094;2022-09-13T01:03:12;27.20;56.20
47174;DHT22;36730;49.036;9.094;2022-09-13T01:05:41;27.30;56.40
47174;DHT22;36730;49.036;9.094;2022-09-13T01:08:08;27.20;56.30
47174;DHT22;36730;49.036;9.094;2022-09-13T01:10:42;27.20;56.50
47174;DHT22;36730;49.036;9.094;2022-09-13T01:13:09;27.20;56.50
47174;DHT22;36730;49.036;9.094;2022-09-13T01:15:42;27.20;56.70
47174;DHT22;36730;49.036;9.094;2022-09-13T01:18:08;27.20;56.70
47174;DHT22;36730;49.036;9.094;2022-09-13T01:20:43;27.10;56.40
47174;DHT22;36730;49.036;9.094;2022-09-13T01:23:15;27.10;56.50
47174;DHT22;36730;49.036;9.094;2022-09-13T01:28:35;27.20;56.60
47174;DHT22;36730;49.036;9.094;2022-09-13T01:36:28;27.20;56.80
47174;DHT22;36730;49.036;9.094;2022-09-13T01:41:32;27.10;56.70
47174;DHT22;36730;49.036;9.094;2022-09-13T01:46:38;27.10;56.60
47174;DHT22;36730;49.036;9.094;2022-09-13T01:49:17;27.10;56.70
47174;DHT22;36730;49.036;9.094;2022-09-13T01:51:59;27.10;56.70
47174;DHT22;36730;49.036;9.094;2022-09-13T01:59:55;27.10;56.80
47174;DHT22;36730;49.036;9.094;2022-09-13T02:04:59;27.10;56.80
47174;DHT22;36730;49.036;9.094;2022-09-13T02:07:28;27.10;56.90
47174;DHT22;36730;49.036;9.094;2022-09-13T02:09:59;27.00;56.70
47174;DHT22;36730;49.036;9.094;2022-09-13T02:12:27;27.00;56.90
47174;DHT22;36730;49.036;9.094;2022-09-13T02:17:28;27.00;57.50
47174;DHT22;36730;49.036;9.094;2022-09-13T02:19:58;27.00;57.10
47174;DHT22;36730;49.036;9.094;2022-09-13T02:22:30;26.90;56.90
47174;DHT22;36730;49.036;9.094;2022-09-13T02:25:00;27.00;57.10
47174;DHT22;36730;49.036;9.094;2022-09-13T02:27:28;27.00;57.00
47174;DHT22;36730;49.036;9.094;2022-09-13T02:29:58;26.90;56.90
47174;DHT22;36730;49.036;9.094;2022-09-13T02:32:29;27.00;57.30
47174;DHT22;36730;49.036;9.094;2022-09-13T02:34:58;26.90;57.00
47174;DHT22;36730;49.036;9.094;2022-09-13T02:37:24;26.90;56.90
47174;DHT22;36730;49.036;9.094;2022-09-13T02:39:54;26.90;57.20
47174;DHT22;36730;49.036;9.094;2022-09-13T02:42:21;27.00;57.10
47174;DHT22;36730;49.036;9.094;2022-09-13T02:44:51;26.90;57.10
47174;DHT22;36730;49.036;9.094;2022-09-13T02:47:27;26.90;57.10
47174;DHT22;36730;49.036;9.094;2022-09-13T02:57:49;26.70;56.80
47174;DHT22;36730;49.036;9.094;2022-09-13T03:00:15;26.50;57.10
47174;DHT22;36730;49.036;9.094;2022-09-13T03:02:40;26.30;57.40
47174;DHT22;36730;49.036;9.094;2022-09-13T03:05:07;26.10;57.90
47174;DHT22;36730;49.036;9.094;2022-09-13T03:07:32;25.90;58.50
47174;DHT22;36730;49.036;9.094;2022-09-13T03:10:00;25.80;58.60
47174;DHT22;36730;49.036;9.094;2022-09-13T03:20:08;25.30;59.60
47174;DHT22;36730;49.036;9.094;2022-09-13T03:22:54;25.20;60.00
47174;DHT22;36730;49.036;9.094;2022-09-13T03:25:45;25.00;60.40
47174;DHT22;36730;49.036;9.094;2022-09-13T03:28:28;24.90;61.10
47174;DHT22;36730;49.036;9.094;2022-09-13T03:31:17;24.60;61.70
47174;DHT22;36730;49.036;9.094;2022-09-13T03:36:17;24.40;62.70
47174;DHT22;36730;49.036;9.094;2022-09-13T03:43:36;24.00;64.20
47174;DHT22;36730;49.036;9.094;2022-09-13T03:46:04;24.00;64.50
47174;DHT22;36730;49.036;9.094;2022-09-13T03:48:34;23.90;65.00
47174;DHT22;36730;49.036;9.094;2022-09-13T03:51:02;23.90;65.40
47174;DHT22;36730;49.036;9.094;2022-09-13T03:53:29;23.90;64.70
47174;DHT22;36730;49.036;9.094;2022-09-13T03:55:55;23.80;64.60
47174;DHT22;36730;49.036;9.094;2022-09-13T03:58:21;23.70;66.20
47174;DHT22;36730;49.036;9.094;2022-09-13T04:00:46;23.70;66.00
47174;DHT22;36730;49.036;9.094;2022-09-13T04:03:12;23.60;65.30
47174;DHT22;36730;49.036;9.094;2022-09-13T04:05:38;23.50;66.20
47174;DHT22;36730;49.036;9.094;2022-09-13T04:08:04;23.40;68.20
47174;DHT22;36730;49.036;9.094;2022-09-13T04:10:33;23.30;68.30
47174;DHT22;36730;49.036;9.094;2022-09-13T04:12:59;23.30;68.90
47174;DHT22;36730;49.036;9.094;2022-09-13T04:15:26;23.30;67.90
47174;DHT22;36730;49.036;9.094;2022-09-13T04:17:51;23.20;68.30
47174;DHT22;36730;49.036;9.094;2022-09-13T04:20:17;23.20;69.00
47174;DHT22;36730;49.036;9.094;2022-09-13T04:22:42;23.20;68.80
47174;DHT22;36730;49.036;9.094;2022-09-13T04:25:08;23.10;69.50
47174;DHT22;36730;49.036;9.094;2022-09-13T04:27:33;23.10;69.60
47174;DHT22;36730;49.036;9.094;2022-09-13T04:30:00;23.10;70.40
47174;DHT22;36730;49.036;9.094;2022-09-13T04:32:25;23.10;69.60
47174;DHT22;36730;49.036;9.094;2022-09-13T04:34:51;23.10;70.00
47174;DHT22;36730;49.036;9.094;2022-09-13T04:37:16;23.10;69.60
47174;DHT22;36730;49.036;9.094;2022-09-13T04:39:42;23.10;70.00
47174;DHT22;36730;49.036;9.094;2022-09-13T04:42:08;23.20;69.10
47174;DHT22;36730;49.036;9.094;2022-09-13T04:44:34;23.10;68.80
47174;DHT22;36730;49.036;9.094;2022-09-13T04:47:00;23.20;69.00
47174;DHT22;36730;49.036;9.094;2022-09-13T04:49:25;23.20;69.00
47174;DHT22;36730;49.036;9.094;2022-09-13T04:51:50;23.20;69.10
47174;DHT22;36730;49.036;9.094;2022-09-13T04:54:16;23.20;69.50
47174;DHT22;36730;49.036;9.094;2022-09-13T04:56:42;23.20;69.50
47174;DHT22;36730;49.036;9.094;2022-09-13T04:59:09;23.20;69.80
47174;DHT22;36730;49.036;9.094;2022-09-13T05:01:35;23.20;69.70
47174;DHT22;36730;49.036;9.094;2022-09-13T05:04:01;23.20;69.30
47174;DHT22;36730;49.036;9.094;2022-09-13T05:06:26;23.20;69.20
47174;DHT22;36730;49.036;9.094;2022-09-13T05:08:53;23.20;69.30
47174;DHT22;36730;49.036;9.094;2022-09-13T05:11:20;23.20;69.60
47174;DHT22;36730;49.036;9.094;2022-09-13T05:13:52;23.20;70.00
47174;DHT22;36730;49.036;9.094;2022-09-13T05:16:19;23.10;69.90
47174;DHT22;36730;49.036;9.094;2022-09-13T05:18:45;23.10;69.60
47174;DHT22;36730;49.036;9.094;2022-09-13T05:21:10;23.10;69.00
47174;DHT22;36730;49.036;9.094;2022-09-13T05:23:36;23.10;69.00
47174;DHT22;36730;49.036;9.094;2022-09-13T05:26:04;23.20;69.30
47174;DHT22;36730;49.036;9.094;2022-09-13T05:28:30;23.10;69.50
47174;DHT22;36730;49.036;9.094;2022-09-13T05:31:00;23.20;69.70
47174;DHT22;36730;49.036;9.094;2022-09-13T05:33:26;23.10;71.00
47174;DHT22;36730;49.036;9.094;2022-09-13T05:35:52;23.10;69.90
47174;DHT22;36730;49.036;9.094;2022-09-13T05:38:18;23.10;69.60
47174;DHT22;36730;49.036;9.094;2022-09-13T05:40:43;23.10;70.20
47174;DHT22;36730;49.036;9.094;2022-09-13T05:43:09;23.10;70.80
47174;DHT22;36730;49.036;9.094;2022-09-13T05:45:35;23.10;70.30
47174;DHT22;36730;49.036;9.094;2022-09-13T05:48:00;23.10;70.60
47174;DHT22;36730;49.036;9.094;2022-09-13T05:50:26;23.10;70.10
47174;DHT22;36730;49.036;9.094;2022-09-13T05:52:52;23.10;71.90
47174;DHT22;36730;49.036;9.094;2022-09-13T05:55:18;23.10;72.30
47174;DHT22;36730;49.036;9.094;2022-09-13T05:57:43;23.10;72.60
47174;DHT22;36730;49.036;9.094;2022-09-13T06:00:09;23.10;73.00
47174;DHT22;36730;49.036;9.094;2022-09-13T06:02:34;23.10;70.90
47174;DHT22;36730;49.036;9.094;2022-09-13T06:05:00;23.10;70.60
47174;DHT22;36730;49.036;9.094;2022-09-13T06:07:26;23.10;71.20
47174;DHT22;36730;49.036;9.094;2022-09-13T06:09:52;23.10;71.50
47174;DHT22;36730;49.036;9.094;2022-09-13T06:12:18;23.10;71.60
47174;DHT22;36730;49.036;9.094;2022-09-13T06:14:43;23.10;74.80
47174;DHT22;36730;49.036;9.094;2022-09-13T06:17:09;23.10;73.70
47174;DHT22;36730;49.036;9.094;2022-09-13T06:19:34;23.10;72.20
47174;DHT22;36730;49.036;9.094;2022-09-13T06:22:00;23.10;72.90
47174;DHT22;36730;49.036;9.094;2022-09-13T06:24:25;23.10;73.80
47174;DHT22;36730;49.036;9.094;2022-09-13T06:26:51;23.10;72.50
47174;DHT22;36730;49.036;9.094;2022-09-13T06:29:16;23.10;72.30
47174;DHT22;36730;49.036;9.094;2022-09-13T06:31:42;23.20;72.60
47174;DHT22;36730;49.036;9.094;2022-09-13T06:34:10;23.10;72.60
47174;DHT22;36730;49.036;9.094;2022-09-13T06:36:37;23.10;72.70
47174;DHT22;36730;49.036;9.094;2022-09-13T06:39:03;23.10;73.30
47174;DHT22;36730;49.036;9.094;2022-09-13T06:41:30;23.10;72.60
47174;DHT22;36730;49.036;9.094;2022-09-13T06:43:57;23.20;74.80
47174;DHT22;36730;49.036;9.094;2022-09-13T06:46:23;23.20;73.40
47174;DHT22;36730;49.036;9.094;2022-09-13T06:48:49;23.20;73.10
47174;DHT22;36730;49.036;9.094;2022-09-13T06:51:16;23.20;72.90
47174;DHT22;36730;49.036;9.094;2022-09-13T06:53:42;23.20;72.60
47174;DHT22;36730;49.036;9.094;2022-09-13T06:56:09;23.20;73.90
47174;DHT22;36730;49.036;9.094;2022-09-13T06:58:35;23.20;74.30
47174;DHT22;36730;49.036;9.094;2022-09-13T07:01:43;23.30;73.30
47174;DHT22;36730;49.036;9.094;2022-09-13T07:03:51;23.30;74.10
47174;DHT22;36730;49.036;9.094;2022-09-13T07:06:18;23.40;73.60
47174;DHT22;36730;49.036;9.094;2022-09-13T07:08:44;23.30;73.30
47174;DHT22;36730;49.036;9.094;2022-09-13T07:11:10;23.30;73.70
47174;DHT22;36730;49.036;9.094;2022-09-13T07:13:36;23.40;73.30
47174;DHT22;36730;49.036;9.094;2022-09-13T07:16:03;23.40;73.90
47174;DHT22;36730;49.036;9.094;2022-09-13T07:18:29;23.50;74.20
47174;DHT22;36730;49.036;9.094;2022-09-13T07:21:01;23.50;73.80
47174;DHT22;36730;49.036;9.094;2022-09-13T07:23:28;23.50;74.20
47174;DHT22;36730;49.036;9.094;2022-09-13T07:25:56;23.60;74.20
47174;DHT22;36730;49.036;9.094;2022-09-13T07:28:29;23.60;73.90
47174;DHT22;36730;49.036;9.094;2022-09-13T07:30:56;23.60;73.30
47174;DHT22;36730;49.036;9.094;2022-09-13T07:33:23;23.60;73.20
47174;DHT22;36730;49.036;9.094;2022-09-13T07:35:55;23.70;73.10
47174;DHT22;36730;49.036;9.094;2022-09-13T07:38:21;23.80;73.90
47174;DHT22;36730;49.036;9.094;2022-09-13T07:40:56;23.80;74.60
47174;DHT22;36730;49.036;9.094;2022-09-13T07:43:24;23.80;73.00
47174;DHT22;36730;49.036;9.094;2022-09-13T07:46:00;23.90;73.30
47174;DHT22;36730;49.036;9.094;2022-09-13T07:48:26;23.90;73.80
47174;DHT22;36730;49.036;9.094;2022-09-13T07:50:56;23.90;73.40
47174;DHT22;36730;49.036;9.094;2022-09-13T07:53:21;24.00;73.40
47174;DHT22;36730;49.036;9.094;2022-09-13T07:55:47;24.00;73.30
47174;DHT22;36730;49.036;9.094;2022-09-13T07:58:12;24.00;73.50
47174;DHT22;36730;49.036;9.094;2022-09-13T08:00:38;24.00;72.60
47174;DHT22;36730;49.036;9.094;2022-09-13T08:03:03;24.10;73.10
47174;DHT22;36730;49.036;9.094;2022-09-13T08:05:28;24.10;73.20
47174;DHT22;36730;49.036;9.094;2022-09-13T08:07:54;24.10;72.60
47174;DHT22;36730;49.036;9.094;2022-09-13T08:10:19;24.20;72.60
47174;DHT22;36730;49.036;9.094;2022-09-13T08:12:45;24.20;72.50
47174;DHT22;36730;49.036;9.094;2022-09-13T08:15:10;24.20;72.00
47174;DHT22;36730;49.036;9.094;2022-09-13T08:17:36;24.20;72.70
47174;DHT22;36730;49.036;9.094;2022-09-13T08:20:01;24.30;72.00
47174;DHT22;36730;49.036;9.094;2022-09-13T08:22:27;24.30;72.00
47174;DHT22;36730;49.036;9.094;2022-09-13T08:24:52;24.40;71.60
47174;DHT22;36730;49.036;9.094;2022-09-13T08:27:17;24.40;72.20
47174;DHT22;36730;49.036;9.094;2022-09-13T08:29:43;24.40;72.70
47174;DHT22;36730;49.036;9.094;2022-09-13T08:32:08;24.40;71.50
47174;DHT22;36730;49.036;9.094;2022-09-13T08:34:34;24.40;71.70
47174;DHT22;36730;49.036;9.094;2022-09-13T08:36:59;24.50;72.30
47174;DHT22;36730;49.036;9.094;2022-09-13T08:39:25;24.50;71.50
47174;DHT22;36730;49.036;9.094;2022-09-13T08:42:03;24.50;71.60
47174;DHT22;36730;49.036;9.094;2022-09-13T08:44:32;24.60;71.40
47174;DHT22;36730;49.036;9.094;2022-09-13T08:49:39;24.60;70.80
47174;DHT22;36730;49.036;9.094;2022-09-13T08:54:39;24.70;69.60
47174;DHT22;36730;49.036;9.094;2022-09-13T08:57:10;24.70;70.20
47174;DHT22;36730;49.036;9.094;2022-09-13T09:07:10;24.80;70.00
47174;DHT22;36730;49.036;9.094;2022-09-13T09:09:39;24.90;69.40
47174;DHT22;36730;49.036;9.094;2022-09-13T09:12:10;25.00;69.20
47174;DHT22;36730;49.036;9.094;2022-09-13T09:14:40;25.00;68.50
47174;DHT22;36730;49.036;9.094;2022-09-13T09:17:11;25.00;68.30
47174;DHT22;36730;49.036;9.094;2022-09-13T09:19:39;25.10;68.10
47174;DHT22;36730;49.036;9.094;2022-09-13T09:22:10;25.10;68.00
47174;DHT22;36730;49.036;9.094;2022-09-13T09:24:37;25.10;67.90
47174;DHT22;36730;49.036;9.094;2022-09-13T09:27:09;25.20;68.00
47174;DHT22;36730;49.036;9.094;2022-09-13T09:29:38;25.20;67.20
47174;DHT22;36730;49.036;9.094;2022-09-13T09:35:03;25.30;66.50
47174;DHT22;36730;49.036;9.094;2022-09-13T09:37:33;25.40;66.50
47174;DHT22;36730;49.036;9.094;2022-09-13T09:39:59;25.40;65.70
47174;DHT22;36730;49.036;9.094;2022-09-13T09:42:27;25.40;65.20
47174;DHT22;36730;49.036;9.094;2022-09-13T09:44:57;25.50;66.80
47174;DHT22;36730;49.036;9.094;2022-09-13T09:47:25;25.60;65.40
47174;DHT22;36730;49.036;9.094;2022-09-13T09:50:12;25.70;64.80
47174;DHT22;36730;49.036;9.094;2022-09-13T09:52:45;25.70;67.80
47174;DHT22;36730;49.036;9.094;2022-09-13T09:55:24;25.80;64.90
47174;DHT22;36730;49.036;9.094;2022-09-13T09:57:52;25.90;64.60
47174;DHT22;36730;49.036;9.094;2022-09-13T10:00:18;26.00;64.20
47174;DHT22;36730;49.036;9.094;2022-09-13T10:02:44;26.10;63.80
47174;DHT22;36730;49.036;9.094;2022-09-13T10:05:10;26.10;63.80
47174;DHT22;36730;49.036;9.094;2022-09-13T10:07:37;26.20;63.70
47174;DHT22;36730;49.036;9.094;2022-09-13T10:13:06;26.30;63.60
47174;DHT22;36730;49.036;9.094;2022-09-13T10:15:32;26.40;63.90
47174;DHT22;36730;49.036;9.094;2022-09-13T10:20:25;26.50;63.80
47174;DHT22;36730;49.036;9.094;2022-09-13T10:28:21;26.70;62.90
47174;DHT22;36730;49.036;9.094;2022-09-13T10:30:52;26.70;63.00
47174;DHT22;36730;49.036;9.094;2022-09-13T10:33:37;26.70;62.30
47174;DHT22;36730;49.036;9.094;2022-09-13T10:36:25;26.70;61.80
47174;DHT22;36730;49.036;9.094;2022-09-13T10:39:00;26.80;62.00
47174;DHT22;36730;49.036;9.094;2022-09-13T10:41:26;26.80;61.90
47174;DHT22;36730;49.036;9.094;2022-09-13T10:44:00;26.80;61.70
47174;DHT22;36730;49.036;9.094;2022-09-13T10:46:27;26.80;61.80
47174;DHT22;36730;49.036;9.094;2022-09-13T10:48:54;26.80;61.30
47174;DHT22;36730;49.036;9.094;2022-09-13T10:53:51;26.90;60.10
47174;DHT22;36730;49.036;9.094;2022-09-13T10:56:31;26.90;60.20
47174;DHT22;36730;49.036;9.094;2022-09-13T11:09:17;27.10;59.20
47174;DHT22;36730;49.036;9.094;2022-09-13T11:19:13;27.30;59.20
47174;DHT22;36730;49.036;9.094;2022-09-13T11:29:15;27.30;58.50
47174;DHT22;36730;49.036;9.094;2022-09-13T11:31:57;27.40;58.60
47174;DHT22;36730;49.036;9.094;2022-09-13T11:34:30;27.40;58.30
47174;DHT22;36730;49.036;9.094;2022-09-13T11:44:52;27.50;57.50
47174;DHT22;36730;49.036;9.094;2022-09-13T11:52:52;27.60;57.70
47174;DHT22;36730;49.036;9.094;2022-09-13T11:55:24;27.60;57.40
47174;DHT22;36730;49.036;9.094;2022-09-13T11:58:12;27.60;57.20
47174;DHT22;36730;49.036;9.094;2022-09-13T12:03:14;27.70;57.20
47174;DHT22;36730;49.036;9.094;2022-09-13T12:05:44;27.70;56.80
47174;DHT22;36730;49.036;9.094;2022-09-13T12:08:21;27.80;56.30
47174;DHT22;36730;49.036;9.094;2022-09-13T12:13:23;27.80;56.20
47174;DHT22;36730;49.036;9.094;2022-09-13T12:16:01;27.80;56.40
47174;DHT22;36730;49.036;9.094;2022-09-13T12:18:28;27.90;56.20
47174;DHT22;36730;49.036;9.094;2022-09-13T12:20:59;27.90;56.10
47174;DHT22;36730;49.036;9.094;2022-09-13T12:23:31;27.90;55.90
47174;DHT22;36730;49.036;9.094;2022-09-13T12:28:39;28.00;54.00
47174;DHT22;36730;49.036;9.094;2022-09-13T12:31:17;28.00;54.90
47174;DHT22;36730;49.036;9.094;2022-09-13T12:33:44;28.10;53.70
47174;DHT22;36730;49.036;9.094;2022-09-13T12:38:41;28.10;53.60
47174;DHT22;36730;49.036;9.094;2022-09-13T12:56:46;28.30;51.40
47174;DHT22;36730;49.036;9.094;2022-09-13T13:01:47;28.40;51.60
47174;DHT22;36730;49.036;9.094;2022-09-13T13:04:47;28.40;51.80
47174;DHT22;36730;49.036;9.094;2022-09-13T13:07:06;28.50;51.10
47174;DHT22;36730;49.036;9.094;2022-09-13T13:09:44;28.50;51.70
47174;DHT22;36730;49.036;9.094;2022-09-13T13:12:24;28.60;50.80
47174;DHT22;36730;49.036;9.094;2022-09-13T13:14:50;28.50;51.50
47174;DHT22;36730;49.036;9.094;2022-09-13T13:22:50;28.60;52.40
47174;DHT22;36730;49.036;9.094;2022-09-13T13:25:35;28.70;52.90
47174;DHT22;36730;49.036;9.094;2022-09-13T13:30:51;28.70;53.40
47174;DHT22;36730;49.036;9.094;2022-09-13T13:33:21;28.70;53.10
47174;DHT22;36730;49.036;9.094;2022-09-13T13:35:47;28.70;52.30
47174;DHT22;36730;49.036;9.094;2022-09-13T13:38:19;28.80;52.90
47174;DHT22;36730;49.036;9.094;2022-09-13T13:41:04;28.80;53.10
47174;DHT22;36730;49.036;9.094;2022-09-13T13:43:31;28.80;52.30
47174;DHT22;36730;49.036;9.094;2022-09-13T13:48:36;28.90;51.80
47174;DHT22;36730;49.036;9.094;2022-09-13T13:51:21;29.00;52.90
47174;DHT22;36730;49.036;9.094;2022-09-13T13:53:48;29.00;53.00
47174;DHT22;36730;49.036;9.094;2022-09-13T13:56:17;29.10;52.70
47174;DHT22;36730;49.036;9.094;2022-09-13T13:59:02;29.10;52.00
47174;DHT22;36730;49.036;9.094;2022-09-13T14:01:29;29.10;52.40
47174;DHT22;36730;49.036;9.094;2022-09-13T14:06:32;29.20;52.00
47174;DHT22;36730;49.036;9.094;2022-09-13T14:11:59;29.20;51.50
47174;DHT22;36730;49.036;9.094;2022-09-13T14:14:37;29.30;50.50
47174;DHT22;36730;49.036;9.094;2022-09-13T14:22:11;29.30;50.40
47174;DHT22;36730;49.036;9.094;2022-09-13T14:24:39;29.30;49.90
47174;DHT22;36730;49.036;9.094;2022-09-13T14:27:12;29.20;49.70
47174;DHT22;36730;49.036;9.094;2022-09-13T14:29:39;29.20;49.80
47174;DHT22;36730;49.036;9.094;2022-09-13T14:32:05;29.20;49.60
47174;DHT22;36730;49.036;9.094;2022-09-13T14:34:32;29.20;50.30
47174;DHT22;36730;49.036;9.094;2022-09-13T14:36:59;29.20;49.70
47174;DHT22;36730;49.036;9.094;2022-09-13T14:39:25;29.30;49.10
47174;DHT22;36730;49.036;9.094;2022-09-13T14:41:58;29.20;48.80
47174;DHT22;36730;49.036;9.094;2022-09-13T14:44:25;29.30;49.50
47174;DHT22;36730;49.036;9.094;2022-09-13T14:46:53;29.20;47.90
47174;DHT22;36730;49.036;9.094;2022-09-13T14:49:26;29.10;48.10
47174;DHT22;36730;49.036;9.094;2022-09-13T14:51:54;29.10;48.70
47174;DHT22;36730;49.036;9.094;2022-09-13T14:54:33;29.20;49.10
47174;DHT22;36730;49.036;9.094;2022-09-13T14:57:01;29.20;49.30
47174;DHT22;36730;49.036;9.094;2022-09-13T14:59:28;29.20;48.70
47174;DHT22;36730;49.036;9.094;2022-09-13T15:01:55;29.20;49.00
47174;DHT22;36730;49.036;9.094;2022-09-13T15:04:22;29.30;48.90
47174;DHT22;36730;49.036;9.094;2022-09-13T15:07:04;29.30;48.90
47174;DHT22;36730;49.036;9.094;2022-09-13T15:09:30;29.30;48.90
47174;DHT22;36730;49.036;9.094;2022-09-13T15:11:57;29.30;48.90
47174;DHT22;36730;49.036;9.094;2022-09-13T15:14:30;29.30;48.90
47174;DHT22;36730;49.036;9.094;2022-09-13T15:22:19;29.30;49.30
47174;DHT22;36730;49.036;9.094;2022-09-13T15:24:46;29.30;48.70
47174;DHT22;36730;49.036;9.094;2022-09-13T15:27:17;29.30;49.10
47174;DHT22;36730;49.036;9.094;2022-09-13T15:29:49;29.30;49.30
47174;DHT22;36730;49.036;9.094;2022-09-13T15:32:23;29.30;48.70
47174;DHT22;36730;49.036;9.094;2022-09-13T15:34:49;29.30;48.70
47174;DHT22;36730;49.036;9.094;2022-09-13T15:37:14;29.30;48.70
47174;DHT22;36730;49.036;9.094;2022-09-13T15:42:08;29.30;48.20
47174;DHT22;36730;49.036;9.094;2022-09-13T15:44:34;29.30;48.30
47174;DHT22;36730;49.036;9.094;2022-09-13T15:46:59;29.30;48.10
47174;DHT22;36730;49.036;9.094;2022-09-13T15:49:29;29.30;47.80
47174;DHT22;36730;49.036;9.094;2022-09-13T15:51:56;29.30;47.90
47174;DHT22;36730;49.036;9.094;2022-09-13T15:54:22;29.30;47.70
47174;DHT22;36730;49.036;9.094;2022-09-13T15:56:49;29.30;47.60
47174;DHT22;36730;49.036;9.094;2022-09-13T15:59:18;29.30;47.90
47174;DHT22;36730;49.036;9.094;2022-09-13T16:01:44;29.30;47.50
47174;DHT22;36730;49.036;9.094;2022-09-13T16:04:10;29.30;48.00
47174;DHT22;36730;49.036;9.094;2022-09-13T16:06:36;29.30;48.50
47174;DHT22;36730;49.036;9.094;2022-09-13T16:09:06;29.40;48.30
47174;DHT22;36730;49.036;9.094;2022-09-13T16:11:32;29.40;47.90
47174;DHT22;36730;49.036;9.094;2022-09-13T16:13:57;29.40;47.60
47174;DHT22;36730;49.036;9.094;2022-09-13T16:16:23;29.40;47.80
47174;DHT22;36730;49.036;9.094;2022-09-13T16:18:48;29.40;48.50
47174;DHT22;36730;49.036;9.094;2022-09-13T16:21:14;29.40;49.00
47174;DHT22;36730;49.036;9.094;2022-09-13T16:23:39;29.40;49.90
47174;DHT22;36730;49.036;9.094;2022-09-13T16:26:05;29.30;50.60
47174;DHT22;36730;49.036;9.094;2022-09-13T16:28:30;29.30;51.30
47174;DHT22;36730;49.036;9.094;2022-09-13T16:30:55;29.30;51.30
47174;DHT22;36730;49.036;9.094;2022-09-13T16:33:21;29.20;52.00
47174;DHT22;36730;49.036;9.094;2022-09-13T16:35:47;29.20;52.40
47174;DHT22;36730;49.036;9.094;2022-09-13T16:38:12;29.20;53.10
47174;DHT22;36730;49.036;9.094;2022-09-13T16:40:38;29.20;53.10
47174;DHT22;36730;49.036;9.094;2022-09-13T16:43:05;29.20;53.50
47174;DHT22;36730;49.036;9.094;2022-09-13T16:45:30;29.20;54.10
47174;DHT22;36730;49.036;9.094;2022-09-13T16:47:56;29.10;54.30
47174;DHT22;36730;49.036;9.094;2022-09-13T16:50:21;29.10;54.70
47174;DHT22;36730;49.036;9.094;2022-09-13T16:52:47;29.00;54.70
47174;DHT22;36730;49.036;9.094;2022-09-13T16:55:12;29.00;55.70
47174;DHT22;36730;49.036;9.094;2022-09-13T16:57:38;29.00;56.20
47174;DHT22;36730;49.036;9.094;2022-09-13T17:00:04;29.00;56.80
47174;DHT22;36730;49.036;9.094;2022-09-13T17:02:33;29.00;56.70
47174;DHT22;36730;49.036;9.094;2022-09-13T17:04:58;29.00;57.80
47174;DHT22;36730;49.036;9.094;2022-09-13T17:07:24;29.00;57.90
47174;DHT22;36730;49.036;9.094;2022-09-13T17:09:49;29.00;58.40
47174;DHT22;36730;49.036;9.094;2022-09-13T17:12:15;29.00;58.30
47174;DHT22;36730;49.036;9.094;2022-09-13T17:14:42;28.90;58.70
47174;DHT22;36730;49.036;9.094;2022-09-13T17:17:12;28.90;59.00
47174;DHT22;36730;49.036;9.094;2022-09-13T17:19:37;28.90;59.60
47174;DHT22;36730;49.036;9.094;2022-09-13T17:22:03;28.90;59.50
47174;DHT22;36730;49.036;9.094;2022-09-13T17:24:30;28.80;59.70
47174;DHT22;36730;49.036;9.094;2022-09-13T17:26:56;28.80;59.80
47174;DHT22;36730;49.036;9.094;2022-09-13T17:29:22;28.70;59.80
47174;DHT22;36730;49.036;9.094;2022-09-13T17:31:50;28.80;60.10
47174;DHT22;36730;49.036;9.094;2022-09-13T17:34:15;28.80;59.50
47174;DHT22;36730;49.036;9.094;2022-09-13T17:36:41;28.80;59.90
47174;DHT22;36730;49.036;9.094;2022-09-13T17:39:07;28.80;59.60
47174;DHT22;36730;49.036;9.094;2022-09-13T17:41:32;28.80;60.00
47174;DHT22;36730;49.036;9.094;2022-09-13T17:43:58;28.80;60.00
47174;DHT22;36730;49.036;9.094;2022-09-13T17:46:24;28.80;59.90
47174;DHT22;36730;49.036;9.094;2022-09-13T17:48:51;28.80;60.40
47174;DHT22;36730;49.036;9.094;2022-09-13T17:51:18;28.80;60.50
47174;DHT22;36730;49.036;9.094;2022-09-13T17:53:48;28.80;60.70
47174;DHT22;36730;49.036;9.094;2022-09-13T17:56:18;28.80;60.60
47174;DHT22;36730;49.036;9.094;2022-09-13T17:58:44;28.70;60.60
47174;DHT22;36730;49.036;9.094;2022-09-13T18:01:10;28.70;60.70
47174;DHT22;36730;49.036;9.094;2022-09-13T18:03:35;28.70;60.80
47174;DHT22;36730;49.036;9.094;2022-09-13T18:06:02;28.70;61.00
47174;DHT22;36730;49.036;9.094;2022-09-13T18:08:29;28.70;61.00
47174;DHT22;36730;49.036;9.094;2022-09-13T18:11:00;28.70;61.10
47174;DHT22;36730;49.036;9.094;2022-09-13T18:13:26;28.70;61.10
47174;DHT22;36730;49.036;9.094;2022-09-13T18:16:01;28.70;61.10
47174;DHT22;36730;49.036;9.094;2022-09-13T18:18:27;28.70;61.20
47174;DHT22;36730;49.036;9.094;2022-09-13T18:20:53;28.70;61.10
47174;DHT22;36730;49.036;9.094;2022-09-13T18:23:18;28.70;61.30
47174;DHT22;36730;49.036;9.094;2022-09-13T18:25:54;28.70;61.20
47174;DHT22;36730;49.036;9.094;2022-09-13T18:28:20;28.70;61.20
47174;DHT22;36730;49.036;9.094;2022-09-13T18:30:55;28.70;61.20